sensor_id;sensor_type;location;lat;lon;timestamp;P1;durP1;ratioP1;P2;durP2;ratioP2
16416;SDS011;8317;52.186;5.688;2023-02-15T00:01:22;37.33;;;19.57;;
16416;SDS011;8317;52.186;5.688;2023-02-15T00:03:50;34.00;;;20.03;;
16416;SDS011;8317;52.186;5.688;2023-02-15T00:06:17;39.23;;;20.33;;
16416;SDS011;8317;52.186;5.688;2023-02-15T00:08:44;32.80;;;21.97;;
16416;SDS011;8317;52.186;5.688;2023-02-15T00:11:12;39.40;;;22.30;;
16416;SDS011;8317;52.186;5.688;2023-02-15T00:13:40;34.80;;;22.07;;
16416;SDS011;8317;52.186;5.688;2023-02-15T00:16:07;33.90;;;20.20;;
16416;SDS011;8317;52.186;5.688;2023-02-15T00:18:36;38.90;;;19.50;;
16416;SDS011;8317;52.186;5.688;2023-02-15T00:21:05;36.10;;;20.60;;
16416;SDS011;8317;52.186;5.688;2023-02-15T00:23:33;33.63;;;19.00;;
16416;SDS011;8317;52.186;5.688;2023-02-15T00:26:06;33.53;;;18.10;;
16416;SDS011;8317;52.186;5.688;2023-02-15T00:28:35;30.17;;;17.33;;
16416;SDS011;8317;52.186;5.688;2023-02-15T00:31:03;29.20;;;16.80;;
16416;SDS011;8317;52.186;5.688;2023-02-15T00:33:31;30.50;;;18.43;;
16416;SDS011;8317;52.186;5.688;2023-02-15T00:35:58;30.13;;;17.90;;
16416;SDS011;8317;52.186;5.688;2023-02-15T00:38:27;32.73;;;17.33;;
16416;SDS011;8317;52.186;5.688;2023-02-15T00:40:55;32.63;;;16.70;;
16416;SDS011;8317;52.186;5.688;2023-02-15T00:43:23;28.37;;;15.30;;
16416;SDS011;8317;52.186;5.688;2023-02-15T00:45:51;32.50;;;17.33;;
16416;SDS011;8317;52.186;5.688;2023-02-15T00:48:18;32.90;;;16.23;;
16416;SDS011;8317;52.186;5.688;2023-02-15T00:50:45;34.53;;;17.63;;
16416;SDS011;8317;52.186;5.688;2023-02-15T00:53:12;33.77;;;19.07;;
16416;SDS011;8317;52.186;5.688;2023-02-15T00:55:41;34.53;;;18.47;;
16416;SDS011;8317;52.186;5.688;2023-02-15T00:58:08;32.03;;;17.87;;
16416;SDS011;8317;52.186;5.688;2023-02-15T01:00:36;31.63;;;18.00;;
16416;SDS011;8317;52.186;5.688;2023-02-15T01:03:04;34.30;;;18.97;;
16416;SDS011;8317;52.186;5.688;2023-02-15T01:05:31;34.90;;;18.90;;
16416;SDS011;8317;52.186;5.688;2023-02-15T01:07:58;34.27;;;18.17;;
16416;SDS011;8317;52.186;5.688;2023-02-15T01:10:25;33.97;;;17.93;;
16416;SDS011;8317;52.186;5.688;2023-02-15T01:12:54;33.33;;;18.47;;
16416;SDS011;8317;52.186;5.688;2023-02-15T01:15:22;33.03;;;17.87;;
16416;SDS011;8317;52.186;5.688;2023-02-15T01:17:49;34.97;;;18.57;;
16416;SDS011;8317;52.186;5.688;2023-02-15T01:20:18;35.80;;;17.60;;
16416;SDS011;8317;52.186;5.688;2023-02-15T01:22:45;37.43;;;17.97;;
16416;SDS011;8317;52.186;5.688;2023-02-15T01:25:14;33.73;;;18.40;;
16416;SDS011;8317;52.186;5.688;2023-02-15T01:27:42;36.87;;;18.77;;
16416;SDS011;8317;52.186;5.688;2023-02-15T01:30:11;35.43;;;18.13;;
16416;SDS011;8317;52.186;5.688;2023-02-15T01:32:39;32.40;;;18.63;;
16416;SDS011;8317;52.186;5.688;2023-02-15T01:35:07;36.67;;;18.30;;
16416;SDS011;8317;52.186;5.688;2023-02-15T01:37:35;32.90;;;18.30;;
16416;SDS011;8317;52.186;5.688;2023-02-15T01:40:03;33.10;;;17.63;;
16416;SDS011;8317;52.186;5.688;2023-02-15T01:42:30;31.07;;;19.03;;
16416;SDS011;8317;52.186;5.688;2023-02-15T01:44:58;35.40;;;19.50;;
16416;SDS011;8317;52.186;5.688;2023-02-15T01:47:29;31.83;;;17.03;;
16416;SDS011;8317;52.186;5.688;2023-02-15T01:50:03;32.20;;;17.60;;
16416;SDS011;8317;52.186;5.688;2023-02-15T01:52:35;30.83;;;16.67;;
16416;SDS011;8317;52.186;5.688;2023-02-15T01:55:05;27.07;;;15.83;;
16416;SDS011;8317;52.186;5.688;2023-02-15T01:57:33;34.30;;;16.43;;
16416;SDS011;8317;52.186;5.688;2023-02-15T02:00:01;33.60;;;17.97;;
16416;SDS011;8317;52.186;5.688;2023-02-15T02:02:34;30.03;;;16.47;;
16416;SDS011;8317;52.186;5.688;2023-02-15T02:05:03;32.90;;;16.20;;
16416;SDS011;8317;52.186;5.688;2023-02-15T02:07:33;33.73;;;16.67;;
16416;SDS011;8317;52.186;5.688;2023-02-15T02:10:03;26.37;;;15.57;;
16416;SDS011;8317;52.186;5.688;2023-02-15T02:12:32;28.10;;;16.07;;
16416;SDS011;8317;52.186;5.688;2023-02-15T02:14:59;29.10;;;14.87;;
16416;SDS011;8317;52.186;5.688;2023-02-15T02:17:28;30.17;;;17.03;;
16416;SDS011;8317;52.186;5.688;2023-02-15T02:23:20;29.40;;;16.27;;
16416;SDS011;8317;52.186;5.688;2023-02-15T02:25:59;35.13;;;18.63;;
16416;SDS011;8317;52.186;5.688;2023-02-15T02:29:00;32.27;;;18.50;;
16416;SDS011;8317;52.186;5.688;2023-02-15T02:31:43;37.53;;;17.93;;
16416;SDS011;8317;52.186;5.688;2023-02-15T02:34:42;33.97;;;19.00;;
16416;SDS011;8317;52.186;5.688;2023-02-15T02:37:18;34.67;;;18.27;;
16416;SDS011;8317;52.186;5.688;2023-02-15T02:39:52;30.73;;;16.87;;
16416;SDS011;8317;52.186;5.688;2023-02-15T02:42:31;37.40;;;18.57;;
16416;SDS011;8317;52.186;5.688;2023-02-15T02:45:05;29.20;;;17.47;;
16416;SDS011;8317;52.186;5.688;2023-02-15T02:47:36;30.93;;;17.70;;
16416;SDS011;8317;52.186;5.688;2023-02-15T02:50:08;34.13;;;16.50;;
16416;SDS011;8317;52.186;5.688;2023-02-15T02:52:39;32.93;;;16.80;;
16416;SDS011;8317;52.186;5.688;2023-02-15T02:55:08;32.47;;;16.57;;
16416;SDS011;8317;52.186;5.688;2023-02-15T02:57:40;36.87;;;18.83;;
16416;SDS011;8317;52.186;5.688;2023-02-15T03:00:13;32.37;;;17.67;;
16416;SDS011;8317;52.186;5.688;2023-02-15T03:02:42;31.60;;;16.37;;
16416;SDS011;8317;52.186;5.688;2023-02-15T03:05:14;26.90;;;15.53;;
16416;SDS011;8317;52.186;5.688;2023-02-15T03:07:45;33.03;;;17.80;;
16416;SDS011;8317;52.186;5.688;2023-02-15T03:10:16;31.63;;;18.87;;
16416;SDS011;8317;52.186;5.688;2023-02-15T03:12:45;34.60;;;18.50;;
16416;SDS011;8317;52.186;5.688;2023-02-15T03:15:13;30.63;;;18.67;;
16416;SDS011;8317;52.186;5.688;2023-02-15T03:17:46;33.77;;;18.47;;
16416;SDS011;8317;52.186;5.688;2023-02-15T03:20:18;36.43;;;18.23;;
16416;SDS011;8317;52.186;5.688;2023-02-15T03:22:50;31.93;;;18.20;;
16416;SDS011;8317;52.186;5.688;2023-02-15T03:25:22;33.23;;;17.13;;
16416;SDS011;8317;52.186;5.688;2023-02-15T03:27:52;31.17;;;17.20;;
16416;SDS011;8317;52.186;5.688;2023-02-15T03:30:21;33.33;;;18.13;;
16416;SDS011;8317;52.186;5.688;2023-02-15T03:32:50;35.03;;;17.67;;
16416;SDS011;8317;52.186;5.688;2023-02-15T03:35:21;36.57;;;18.93;;
16416;SDS011;8317;52.186;5.688;2023-02-15T03:37:53;33.57;;;18.17;;
16416;SDS011;8317;52.186;5.688;2023-02-15T03:40:23;31.60;;;17.93;;
16416;SDS011;8317;52.186;5.688;2023-02-15T03:43:13;27.87;;;16.37;;
16416;SDS011;8317;52.186;5.688;2023-02-15T03:45:45;37.37;;;17.73;;
16416;SDS011;8317;52.186;5.688;2023-02-15T03:48:21;30.37;;;17.63;;
16416;SDS011;8317;52.186;5.688;2023-02-15T03:50:54;37.53;;;19.47;;
16416;SDS011;8317;52.186;5.688;2023-02-15T03:53:41;37.73;;;19.67;;
16416;SDS011;8317;52.186;5.688;2023-02-15T03:56:09;35.93;;;18.50;;
16416;SDS011;8317;52.186;5.688;2023-02-15T03:58:36;36.20;;;18.63;;
16416;SDS011;8317;52.186;5.688;2023-02-15T04:01:22;38.97;;;19.77;;
16416;SDS011;8317;52.186;5.688;2023-02-15T04:04:23;34.13;;;18.80;;
16416;SDS011;8317;52.186;5.688;2023-02-15T04:06:53;33.07;;;19.07;;
16416;SDS011;8317;52.186;5.688;2023-02-15T04:09:20;36.10;;;18.23;;
16416;SDS011;8317;52.186;5.688;2023-02-15T04:12:05;35.70;;;20.10;;
16416;SDS011;8317;52.186;5.688;2023-02-15T04:14:32;39.03;;;19.53;;
16416;SDS011;8317;52.186;5.688;2023-02-15T04:17:16;33.83;;;18.27;;
16416;SDS011;8317;52.186;5.688;2023-02-15T04:19:43;36.43;;;18.80;;
16416;SDS011;8317;52.186;5.688;2023-02-15T04:22:29;34.00;;;18.17;;
16416;SDS011;8317;52.186;5.688;2023-02-15T04:25:13;34.03;;;17.77;;
16416;SDS011;8317;52.186;5.688;2023-02-15T04:27:40;34.93;;;19.67;;
16416;SDS011;8317;52.186;5.688;2023-02-15T04:30:10;39.53;;;19.37;;
16416;SDS011;8317;52.186;5.688;2023-02-15T04:32:38;35.77;;;20.40;;
16416;SDS011;8317;52.186;5.688;2023-02-15T04:35:05;32.67;;;18.20;;
16416;SDS011;8317;52.186;5.688;2023-02-15T04:37:34;38.13;;;20.03;;
16416;SDS011;8317;52.186;5.688;2023-02-15T04:40:00;37.87;;;19.97;;
16416;SDS011;8317;52.186;5.688;2023-02-15T04:42:28;36.27;;;19.07;;
16416;SDS011;8317;52.186;5.688;2023-02-15T04:44:55;34.73;;;19.97;;
16416;SDS011;8317;52.186;5.688;2023-02-15T04:47:22;40.77;;;19.60;;
16416;SDS011;8317;52.186;5.688;2023-02-15T04:49:49;37.63;;;20.03;;
16416;SDS011;8317;52.186;5.688;2023-02-15T04:52:16;51.90;;;28.17;;
16416;SDS011;8317;52.186;5.688;2023-02-15T04:54:44;98.67;;;46.23;;
16416;SDS011;8317;52.186;5.688;2023-02-15T04:57:11;77.73;;;43.27;;
16416;SDS011;8317;52.186;5.688;2023-02-15T04:59:39;77.47;;;40.50;;
16416;SDS011;8317;52.186;5.688;2023-02-15T05:02:05;71.80;;;38.83;;
16416;SDS011;8317;52.186;5.688;2023-02-15T05:04:33;62.80;;;35.37;;
16416;SDS011;8317;52.186;5.688;2023-02-15T05:07:00;61.27;;;32.67;;
16416;SDS011;8317;52.186;5.688;2023-02-15T05:09:27;58.07;;;32.23;;
16416;SDS011;8317;52.186;5.688;2023-02-15T05:11:55;47.73;;;28.37;;
16416;SDS011;8317;52.186;5.688;2023-02-15T05:14:22;44.57;;;24.57;;
16416;SDS011;8317;52.186;5.688;2023-02-15T05:16:49;39.60;;;21.97;;
16416;SDS011;8317;52.186;5.688;2023-02-15T05:19:16;39.90;;;22.27;;
16416;SDS011;8317;52.186;5.688;2023-02-15T05:21:43;43.20;;;22.87;;
16416;SDS011;8317;52.186;5.688;2023-02-15T05:24:10;39.90;;;21.13;;
16416;SDS011;8317;52.186;5.688;2023-02-15T05:26:54;37.23;;;19.30;;
16416;SDS011;8317;52.186;5.688;2023-02-15T05:29:48;38.63;;;19.53;;
16416;SDS011;8317;52.186;5.688;2023-02-15T05:32:14;35.87;;;18.97;;
16416;SDS011;8317;52.186;5.688;2023-02-15T05:34:41;41.97;;;20.07;;
16416;SDS011;8317;52.186;5.688;2023-02-15T05:37:08;42.87;;;20.23;;
16416;SDS011;8317;52.186;5.688;2023-02-15T05:39:35;37.73;;;19.97;;
16416;SDS011;8317;52.186;5.688;2023-02-15T05:42:03;36.73;;;19.77;;
16416;SDS011;8317;52.186;5.688;2023-02-15T05:44:30;43.00;;;21.57;;
16416;SDS011;8317;52.186;5.688;2023-02-15T05:46:57;40.73;;;20.10;;
16416;SDS011;8317;52.186;5.688;2023-02-15T05:49:24;38.60;;;19.30;;
16416;SDS011;8317;52.186;5.688;2023-02-15T05:51:51;43.77;;;21.50;;
16416;SDS011;8317;52.186;5.688;2023-02-15T05:54:18;39.57;;;19.93;;
16416;SDS011;8317;52.186;5.688;2023-02-15T05:56:44;42.50;;;21.47;;
16416;SDS011;8317;52.186;5.688;2023-02-15T05:59:13;47.00;;;20.60;;
16416;SDS011;8317;52.186;5.688;2023-02-15T06:01:39;42.43;;;20.80;;
16416;SDS011;8317;52.186;5.688;2023-02-15T06:04:06;38.37;;;21.53;;
16416;SDS011;8317;52.186;5.688;2023-02-15T06:06:33;41.77;;;21.63;;
16416;SDS011;8317;52.186;5.688;2023-02-15T06:09:00;43.37;;;22.03;;
16416;SDS011;8317;52.186;5.688;2023-02-15T06:11:27;44.93;;;22.87;;
16416;SDS011;8317;52.186;5.688;2023-02-15T06:13:54;38.07;;;19.90;;
16416;SDS011;8317;52.186;5.688;2023-02-15T06:16:22;48.00;;;23.80;;
16416;SDS011;8317;52.186;5.688;2023-02-15T06:18:49;52.00;;;24.90;;
16416;SDS011;8317;52.186;5.688;2023-02-15T06:21:16;60.43;;;30.60;;
16416;SDS011;8317;52.186;5.688;2023-02-15T06:23:43;66.87;;;30.73;;
16416;SDS011;8317;52.186;5.688;2023-02-15T06:26:10;67.63;;;30.20;;
16416;SDS011;8317;52.186;5.688;2023-02-15T06:28:37;51.77;;;27.87;;
16416;SDS011;8317;52.186;5.688;2023-02-15T06:31:03;50.03;;;25.77;;
16416;SDS011;8317;52.186;5.688;2023-02-15T06:33:32;49.37;;;26.10;;
16416;SDS011;8317;52.186;5.688;2023-02-15T06:35:59;42.30;;;22.83;;
16416;SDS011;8317;52.186;5.688;2023-02-15T06:38:26;40.57;;;22.00;;
16416;SDS011;8317;52.186;5.688;2023-02-15T06:40:53;39.90;;;19.80;;
16416;SDS011;8317;52.186;5.688;2023-02-15T06:43:20;39.73;;;20.43;;
16416;SDS011;8317;52.186;5.688;2023-02-15T06:45:47;40.30;;;20.20;;
16416;SDS011;8317;52.186;5.688;2023-02-15T06:48:14;44.47;;;21.23;;
16416;SDS011;8317;52.186;5.688;2023-02-15T06:50:42;38.33;;;20.97;;
16416;SDS011;8317;52.186;5.688;2023-02-15T06:53:09;39.90;;;20.60;;
16416;SDS011;8317;52.186;5.688;2023-02-15T06:55:36;38.57;;;19.07;;
16416;SDS011;8317;52.186;5.688;2023-02-15T06:58:03;38.13;;;20.07;;
16416;SDS011;8317;52.186;5.688;2023-02-15T07:00:30;37.90;;;19.70;;
16416;SDS011;8317;52.186;5.688;2023-02-15T07:02:57;38.87;;;20.67;;
16416;SDS011;8317;52.186;5.688;2023-02-15T07:05:24;42.67;;;20.30;;
16416;SDS011;8317;52.186;5.688;2023-02-15T07:07:57;37.50;;;19.37;;
16416;SDS011;8317;52.186;5.688;2023-02-15T07:10:24;35.27;;;19.37;;
16416;SDS011;8317;52.186;5.688;2023-02-15T07:12:51;38.90;;;19.57;;
16416;SDS011;8317;52.186;5.688;2023-02-15T07:15:17;43.43;;;21.90;;
16416;SDS011;8317;52.186;5.688;2023-02-15T07:17:46;39.20;;;20.20;;
16416;SDS011;8317;52.186;5.688;2023-02-15T07:20:14;43.37;;;21.47;;
16416;SDS011;8317;52.186;5.688;2023-02-15T07:22:42;43.73;;;22.50;;
16416;SDS011;8317;52.186;5.688;2023-02-15T07:25:11;45.73;;;22.23;;
16416;SDS011;8317;52.186;5.688;2023-02-15T07:27:38;41.57;;;22.73;;
16416;SDS011;8317;52.186;5.688;2023-02-15T07:30:06;48.27;;;22.43;;
16416;SDS011;8317;52.186;5.688;2023-02-15T07:32:35;44.57;;;23.70;;
16416;SDS011;8317;52.186;5.688;2023-02-15T07:35:22;44.10;;;23.07;;
16416;SDS011;8317;52.186;5.688;2023-02-15T07:37:49;44.27;;;23.17;;
16416;SDS011;8317;52.186;5.688;2023-02-15T07:40:19;45.83;;;23.37;;
16416;SDS011;8317;52.186;5.688;2023-02-15T07:42:48;44.53;;;23.93;;
16416;SDS011;8317;52.186;5.688;2023-02-15T07:45:16;49.43;;;25.83;;
16416;SDS011;8317;52.186;5.688;2023-02-15T07:47:43;45.03;;;24.67;;
16416;SDS011;8317;52.186;5.688;2023-02-15T07:50:10;47.73;;;24.53;;
16416;SDS011;8317;52.186;5.688;2023-02-15T07:52:37;49.00;;;26.17;;
16416;SDS011;8317;52.186;5.688;2023-02-15T07:55:04;49.30;;;25.47;;
16416;SDS011;8317;52.186;5.688;2023-02-15T07:57:35;50.30;;;24.97;;
16416;SDS011;8317;52.186;5.688;2023-02-15T08:00:02;51.20;;;25.67;;
16416;SDS011;8317;52.186;5.688;2023-02-15T08:02:29;59.23;;;26.50;;
16416;SDS011;8317;52.186;5.688;2023-02-15T08:04:56;56.23;;;26.83;;
16416;SDS011;8317;52.186;5.688;2023-02-15T08:07:23;54.20;;;27.87;;
16416;SDS011;8317;52.186;5.688;2023-02-15T08:09:50;56.40;;;26.33;;
16416;SDS011;8317;52.186;5.688;2023-02-15T08:12:18;52.27;;;26.27;;
16416;SDS011;8317;52.186;5.688;2023-02-15T08:14:46;55.13;;;27.13;;
16416;SDS011;8317;52.186;5.688;2023-02-15T08:17:13;52.73;;;28.93;;
16416;SDS011;8317;52.186;5.688;2023-02-15T08:19:40;56.17;;;31.27;;
16416;SDS011;8317;52.186;5.688;2023-02-15T08:22:07;48.10;;;27.77;;
16416;SDS011;8317;52.186;5.688;2023-02-15T08:24:37;54.93;;;28.37;;
16416;SDS011;8317;52.186;5.688;2023-02-15T08:27:04;48.80;;;27.77;;
16416;SDS011;8317;52.186;5.688;2023-02-15T08:29:32;52.97;;;26.73;;
16416;SDS011;8317;52.186;5.688;2023-02-15T08:32:01;52.57;;;27.90;;
16416;SDS011;8317;52.186;5.688;2023-02-15T08:34:30;45.03;;;25.70;;
16416;SDS011;8317;52.186;5.688;2023-02-15T08:36:59;46.47;;;26.17;;
16416;SDS011;8317;52.186;5.688;2023-02-15T08:39:26;52.73;;;28.10;;
16416;SDS011;8317;52.186;5.688;2023-02-15T08:41:53;45.93;;;26.27;;
16416;SDS011;8317;52.186;5.688;2023-02-15T08:44:20;49.73;;;26.20;;
16416;SDS011;8317;52.186;5.688;2023-02-15T08:46:47;46.53;;;26.87;;
16416;SDS011;8317;52.186;5.688;2023-02-15T08:49:17;45.83;;;27.52;;
16416;SDS011;8317;52.186;5.688;2023-02-15T08:51:45;46.83;;;26.43;;
16416;SDS011;8317;52.186;5.688;2023-02-15T08:54:14;46.43;;;26.13;;
16416;SDS011;8317;52.186;5.688;2023-02-15T08:56:43;45.67;;;26.90;;
16416;SDS011;8317;52.186;5.688;2023-02-15T08:59:12;46.85;;;26.90;;
16416;SDS011;8317;52.186;5.688;2023-02-15T09:01:40;44.38;;;25.63;;
16416;SDS011;8317;52.186;5.688;2023-02-15T09:04:07;43.75;;;24.98;;
16416;SDS011;8317;52.186;5.688;2023-02-15T09:06:36;44.83;;;25.63;;
16416;SDS011;8317;52.186;5.688;2023-02-15T09:09:04;41.80;;;26.83;;
16416;SDS011;8317;52.186;5.688;2023-02-15T09:11:33;44.47;;;26.67;;
16416;SDS011;8317;52.186;5.688;2023-02-15T09:14:01;41.53;;;25.33;;
16416;SDS011;8317;52.186;5.688;2023-02-15T09:16:30;45.47;;;25.42;;
16416;SDS011;8317;52.186;5.688;2023-02-15T09:18:58;50.03;;;28.08;;
16416;SDS011;8317;52.186;5.688;2023-02-15T09:21:26;52.28;;;30.63;;
16416;SDS011;8317;52.186;5.688;2023-02-15T09:23:57;52.88;;;31.90;;
16416;SDS011;8317;52.186;5.688;2023-02-15T09:26:26;50.55;;;27.77;;
16416;SDS011;8317;52.186;5.688;2023-02-15T09:28:54;48.20;;;28.13;;
16416;SDS011;8317;52.186;5.688;2023-02-15T09:31:23;41.63;;;26.13;;
16416;SDS011;8317;52.186;5.688;2023-02-15T09:33:51;45.25;;;27.05;;
16416;SDS011;8317;52.186;5.688;2023-02-15T09:36:18;50.22;;;31.08;;
16416;SDS011;8317;52.186;5.688;2023-02-15T09:38:47;60.67;;;33.42;;
16416;SDS011;8317;52.186;5.688;2023-02-15T09:44:25;47.70;;;27.50;;
16416;SDS011;8317;52.186;5.688;2023-02-15T09:47:04;54.00;;;32.50;;
16416;SDS011;8317;52.186;5.688;2023-02-15T09:49:44;52.53;;;31.17;;
16416;SDS011;8317;52.186;5.688;2023-02-15T09:52:26;48.65;;;29.50;;
16416;SDS011;8317;52.186;5.688;2023-02-15T09:55:16;45.20;;;28.10;;
16416;SDS011;8317;52.186;5.688;2023-02-15T09:57:53;48.22;;;28.55;;
16416;SDS011;8317;52.186;5.688;2023-02-15T10:00:30;49.20;;;31.80;;
16416;SDS011;8317;52.186;5.688;2023-02-15T10:03:11;50.22;;;27.60;;
16416;SDS011;8317;52.186;5.688;2023-02-15T10:05:53;46.47;;;26.80;;
16416;SDS011;8317;52.186;5.688;2023-02-15T10:08:32;45.05;;;26.83;;
16416;SDS011;8317;52.186;5.688;2023-02-15T10:11:15;45.28;;;27.48;;
16416;SDS011;8317;52.186;5.688;2023-02-15T10:14:09;47.55;;;29.42;;
16416;SDS011;8317;52.186;5.688;2023-02-15T10:17:08;48.33;;;28.58;;
16416;SDS011;8317;52.186;5.688;2023-02-15T10:19:47;48.58;;;28.85;;
16416;SDS011;8317;52.186;5.688;2023-02-15T10:22:28;46.78;;;27.70;;
16416;SDS011;8317;52.186;5.688;2023-02-15T10:25:09;40.58;;;26.75;;
16416;SDS011;8317;52.186;5.688;2023-02-15T10:27:46;43.97;;;29.00;;
16416;SDS011;8317;52.186;5.688;2023-02-15T10:30:14;48.08;;;28.20;;
16416;SDS011;8317;52.186;5.688;2023-02-15T10:32:51;42.28;;;27.35;;
16416;SDS011;8317;52.186;5.688;2023-02-15T10:35:26;47.33;;;28.67;;
16416;SDS011;8317;52.186;5.688;2023-02-15T10:38:07;48.55;;;29.08;;
16416;SDS011;8317;52.186;5.688;2023-02-15T10:40:45;39.88;;;27.20;;
16416;SDS011;8317;52.186;5.688;2023-02-15T10:43:25;43.72;;;27.70;;
16416;SDS011;8317;52.186;5.688;2023-02-15T10:46:19;45.53;;;26.90;;
16416;SDS011;8317;52.186;5.688;2023-02-15T10:49:03;41.92;;;27.42;;
16416;SDS011;8317;52.186;5.688;2023-02-15T10:51:48;41.03;;;26.52;;
16416;SDS011;8317;52.186;5.688;2023-02-15T10:54:27;44.55;;;26.63;;
16416;SDS011;8317;52.186;5.688;2023-02-15T10:57:03;47.95;;;27.15;;
16416;SDS011;8317;52.186;5.688;2023-02-15T10:59:46;41.60;;;25.48;;
16416;SDS011;8317;52.186;5.688;2023-02-15T11:02:23;42.65;;;27.77;;
16416;SDS011;8317;52.186;5.688;2023-02-15T11:05:02;40.67;;;25.67;;
16416;SDS011;8317;52.186;5.688;2023-02-15T11:07:43;41.65;;;26.98;;
16416;SDS011;8317;52.186;5.688;2023-02-15T11:10:14;40.42;;;27.00;;
16416;SDS011;8317;52.186;5.688;2023-02-15T11:12:53;43.80;;;26.88;;
16416;SDS011;8317;52.186;5.688;2023-02-15T11:15:24;41.97;;;26.65;;
16416;SDS011;8317;52.186;5.688;2023-02-15T11:17:57;42.53;;;26.00;;
16416;SDS011;8317;52.186;5.688;2023-02-15T11:20:33;46.42;;;27.05;;
16416;SDS011;8317;52.186;5.688;2023-02-15T11:23:07;42.05;;;27.10;;
16416;SDS011;8317;52.186;5.688;2023-02-15T11:25:42;42.53;;;26.58;;
16416;SDS011;8317;52.186;5.688;2023-02-15T11:28:13;43.88;;;27.70;;
16416;SDS011;8317;52.186;5.688;2023-02-15T11:30:46;42.28;;;26.15;;
16416;SDS011;8317;52.186;5.688;2023-02-15T11:33:17;41.95;;;27.45;;
16416;SDS011;8317;52.186;5.688;2023-02-15T11:35:50;42.17;;;27.08;;
16416;SDS011;8317;52.186;5.688;2023-02-15T11:38:21;44.90;;;27.17;;
16416;SDS011;8317;52.186;5.688;2023-02-15T11:40:51;46.38;;;26.95;;
16416;SDS011;8317;52.186;5.688;2023-02-15T11:43:23;45.85;;;27.55;;
16416;SDS011;8317;52.186;5.688;2023-02-15T11:45:57;42.00;;;26.65;;
16416;SDS011;8317;52.186;5.688;2023-02-15T11:48:24;47.42;;;27.40;;
16416;SDS011;8317;52.186;5.688;2023-02-15T11:50:52;46.50;;;27.58;;
16416;SDS011;8317;52.186;5.688;2023-02-15T11:53:19;43.60;;;26.58;;
16416;SDS011;8317;52.186;5.688;2023-02-15T11:55:49;42.47;;;27.10;;
16416;SDS011;8317;52.186;5.688;2023-02-15T11:58:22;45.05;;;27.13;;
16416;SDS011;8317;52.186;5.688;2023-02-15T12:00:56;45.15;;;26.27;;
16416;SDS011;8317;52.186;5.688;2023-02-15T12:03:28;42.65;;;26.33;;
16416;SDS011;8317;52.186;5.688;2023-02-15T12:06:11;47.55;;;26.88;;
16416;SDS011;8317;52.186;5.688;2023-02-15T12:08:49;44.30;;;27.80;;
16416;SDS011;8317;52.186;5.688;2023-02-15T12:11:22;46.88;;;27.42;;
16416;SDS011;8317;52.186;5.688;2023-02-15T12:13:55;46.53;;;26.92;;
16416;SDS011;8317;52.186;5.688;2023-02-15T12:16:23;47.65;;;27.75;;
16416;SDS011;8317;52.186;5.688;2023-02-15T12:18:52;45.20;;;27.40;;
16416;SDS011;8317;52.186;5.688;2023-02-15T12:21:26;49.78;;;27.60;;
16416;SDS011;8317;52.186;5.688;2023-02-15T12:23:56;52.00;;;26.92;;
16416;SDS011;8317;52.186;5.688;2023-02-15T12:26:27;49.47;;;26.70;;
16416;SDS011;8317;52.186;5.688;2023-02-15T12:28:55;51.67;;;28.17;;
16416;SDS011;8317;52.186;5.688;2023-02-15T12:31:27;53.47;;;27.27;;
16416;SDS011;8317;52.186;5.688;2023-02-15T12:33:57;52.22;;;26.98;;
16416;SDS011;8317;52.186;5.688;2023-02-15T12:36:30;46.15;;;25.77;;
16416;SDS011;8317;52.186;5.688;2023-02-15T12:39:20;48.83;;;27.60;;
16416;SDS011;8317;52.186;5.688;2023-02-15T12:41:57;51.13;;;26.42;;
16416;SDS011;8317;52.186;5.688;2023-02-15T12:44:27;48.35;;;26.45;;
16416;SDS011;8317;52.186;5.688;2023-02-15T12:46:56;42.78;;;25.90;;
16416;SDS011;8317;52.186;5.688;2023-02-15T12:49:25;45.88;;;27.10;;
16416;SDS011;8317;52.186;5.688;2023-02-15T12:51:54;46.50;;;26.98;;
16416;SDS011;8317;52.186;5.688;2023-02-15T12:54:35;46.53;;;27.05;;
16416;SDS011;8317;52.186;5.688;2023-02-15T12:57:21;48.80;;;28.58;;
16416;SDS011;8317;52.186;5.688;2023-02-15T12:59:52;46.28;;;26.17;;
16416;SDS011;8317;52.186;5.688;2023-02-15T13:02:24;58.72;;;27.30;;
16416;SDS011;8317;52.186;5.688;2023-02-15T13:04:57;43.00;;;26.35;;
16416;SDS011;8317;52.186;5.688;2023-02-15T13:07:35;46.38;;;26.58;;
16416;SDS011;8317;52.186;5.688;2023-02-15T13:10:03;46.65;;;27.20;;
16416;SDS011;8317;52.186;5.688;2023-02-15T13:12:46;46.70;;;26.77;;
16416;SDS011;8317;52.186;5.688;2023-02-15T13:15:22;42.05;;;26.02;;
16416;SDS011;8317;52.186;5.688;2023-02-15T13:17:52;46.70;;;27.83;;
16416;SDS011;8317;52.186;5.688;2023-02-15T13:20:21;47.15;;;27.90;;
16416;SDS011;8317;52.186;5.688;2023-02-15T13:22:52;43.78;;;27.73;;
16416;SDS011;8317;52.186;5.688;2023-02-15T13:25:22;46.78;;;28.13;;
16416;SDS011;8317;52.186;5.688;2023-02-15T13:27:54;47.65;;;28.08;;
16416;SDS011;8317;52.186;5.688;2023-02-15T13:30:24;51.40;;;29.13;;
16416;SDS011;8317;52.186;5.688;2023-02-15T13:32:55;44.00;;;27.15;;
16416;SDS011;8317;52.186;5.688;2023-02-15T13:35:24;50.97;;;28.73;;
16416;SDS011;8317;52.186;5.688;2023-02-15T13:38:08;45.20;;;28.05;;
16416;SDS011;8317;52.186;5.688;2023-02-15T13:40:46;52.85;;;29.67;;
16416;SDS011;8317;52.186;5.688;2023-02-15T13:43:21;54.60;;;29.48;;
16416;SDS011;8317;52.186;5.688;2023-02-15T13:45:57;51.15;;;28.38;;
16416;SDS011;8317;52.186;5.688;2023-02-15T13:48:36;49.83;;;27.15;;
16416;SDS011;8317;52.186;5.688;2023-02-15T13:51:13;51.13;;;28.88;;
16416;SDS011;8317;52.186;5.688;2023-02-15T13:53:54;49.50;;;28.60;;
16416;SDS011;8317;52.186;5.688;2023-02-15T13:56:34;47.05;;;27.88;;
16416;SDS011;8317;52.186;5.688;2023-02-15T13:59:13;48.03;;;27.63;;
16416;SDS011;8317;52.186;5.688;2023-02-15T14:01:55;52.17;;;29.17;;
16416;SDS011;8317;52.186;5.688;2023-02-15T14:07:19;48.80;;;29.08;;
16416;SDS011;8317;52.186;5.688;2023-02-15T14:10:17;53.47;;;30.38;;
16416;SDS011;8317;52.186;5.688;2023-02-15T14:12:58;51.75;;;30.52;;
16416;SDS011;8317;52.186;5.688;2023-02-15T14:15:38;53.25;;;29.35;;
16416;SDS011;8317;52.186;5.688;2023-02-15T14:18:15;50.88;;;30.27;;
16416;SDS011;8317;52.186;5.688;2023-02-15T14:20:51;50.33;;;29.17;;
16416;SDS011;8317;52.186;5.688;2023-02-15T14:23:30;50.00;;;29.63;;
16416;SDS011;8317;52.186;5.688;2023-02-15T14:26:17;49.22;;;29.13;;
16416;SDS011;8317;52.186;5.688;2023-02-15T14:28:51;55.13;;;30.63;;
16416;SDS011;8317;52.186;5.688;2023-02-15T14:31:25;53.03;;;29.67;;
16416;SDS011;8317;52.186;5.688;2023-02-15T14:33:57;54.38;;;29.23;;
16416;SDS011;8317;52.186;5.688;2023-02-15T14:36:24;53.15;;;29.63;;
16416;SDS011;8317;52.186;5.688;2023-02-15T14:38:59;58.80;;;31.00;;
16416;SDS011;8317;52.186;5.688;2023-02-15T14:41:54;52.60;;;28.83;;
16416;SDS011;8317;52.186;5.688;2023-02-15T14:44:29;54.58;;;29.45;;
16416;SDS011;8317;52.186;5.688;2023-02-15T14:47:04;55.15;;;31.48;;
16416;SDS011;8317;52.186;5.688;2023-02-15T14:49:36;52.45;;;30.10;;
16416;SDS011;8317;52.186;5.688;2023-02-15T14:52:05;54.53;;;30.10;;
16416;SDS011;8317;52.186;5.688;2023-02-15T14:54:52;57.15;;;30.42;;
16416;SDS011;8317;52.186;5.688;2023-02-15T14:57:24;56.85;;;31.42;;
16416;SDS011;8317;52.186;5.688;2023-02-15T14:59:53;54.13;;;31.75;;
16416;SDS011;8317;52.186;5.688;2023-02-15T15:02:26;54.47;;;31.25;;
16416;SDS011;8317;52.186;5.688;2023-02-15T15:05:02;51.83;;;30.80;;
16416;SDS011;8317;52.186;5.688;2023-02-15T15:07:38;58.42;;;31.73;;
16416;SDS011;8317;52.186;5.688;2023-02-15T15:13:01;52.47;;;31.17;;